メインページ
METAR-TAF:

METAR-TAF

空港 :

トリポリ, リビア

Mitiga International Airport

緯度: 32-54N, 経度: 13-17E, 海抜: 11m

METAR: 見つかりません

時間: 01:33 (23:33 UTC)

予報

当レポートは6時間33分前の17:00(UTC)に作成
予報は23日の 18時(UTC)から 24日の 18時(UTC)まで有効
東/北東の風 12kt、最大22ktの突風を伴う
視程: 8000m
23日の 20時(UTC)から 23日の 22時(UTC)まで徐々に
の風 10kt
高度4500ftの雲は散在している
高度8000ftの雲は散在している

TAF: HLLM 231700Z 2318/2418 06012G22KT 8000 NSC BECMG 2320/2322 09010KT SCT045 SCT080

4,000以上の空港の気象観測と天気予報(METAR報とTAF報)

利用可能な観測所は地図上に黄色い丸と赤い丸で示す。

丸の上にカーソルを重ねると観測所名を参照できる。

次にクリックすると気象観測と天気予報を参照できる。

マップの切り替え:黒色「×」印の緑ボタンをクリックして拡大、「-」印の緑ボタンをクリックして縮小、緑色の三角印をクリックして隣りの地図に切り替え


METAR-TAF: